sensor_id;sensor_type;location;lat;lon;timestamp;P1;durP1;ratioP1;P2;durP2;ratioP2
43891;SDS011;29555;45.350;5.578;2022-11-23T00:00:31;14.60;;;9.50;;
43891;SDS011;29555;45.350;5.578;2022-11-23T00:02:57;17.25;;;9.05;;
43891;SDS011;29555;45.350;5.578;2022-11-23T00:05:23;24.00;;;14.10;;
43891;SDS011;29555;45.350;5.578;2022-11-23T00:07:49;11.05;;;8.63;;
43891;SDS011;29555;45.350;5.578;2022-11-23T00:10:15;9.23;;;5.85;;
43891;SDS011;29555;45.350;5.578;2022-11-23T00:12:41;30.58;;;10.05;;
43891;SDS011;29555;45.350;5.578;2022-11-23T00:15:06;44.60;;;23.10;;
43891;SDS011;29555;45.350;5.578;2022-11-23T00:17:32;22.40;;;14.15;;
43891;SDS011;29555;45.350;5.578;2022-11-23T00:19:58;23.25;;;10.90;;
43891;SDS011;29555;45.350;5.578;2022-11-23T00:22:23;15.82;;;10.75;;
43891;SDS011;29555;45.350;5.578;2022-11-23T00:24:49;18.77;;;7.47;;
43891;SDS011;29555;45.350;5.578;2022-11-23T00:27:14;14.10;;;9.43;;
43891;SDS011;29555;45.350;5.578;2022-11-23T00:29:40;12.77;;;7.85;;
43891;SDS011;29555;45.350;5.578;2022-11-23T00:32:06;12.13;;;7.13;;
43891;SDS011;29555;45.350;5.578;2022-11-23T00:34:32;18.88;;;6.97;;
43891;SDS011;29555;45.350;5.578;2022-11-23T00:36:57;11.00;;;8.50;;
43891;SDS011;29555;45.350;5.578;2022-11-23T00:39:23;9.75;;;6.60;;
43891;SDS011;29555;45.350;5.578;2022-11-23T00:41:48;10.18;;;7.53;;
43891;SDS011;29555;45.350;5.578;2022-11-23T00:44:14;11.57;;;7.95;;
43891;SDS011;29555;45.350;5.578;2022-11-23T00:46:39;19.35;;;10.00;;
43891;SDS011;29555;45.350;5.578;2022-11-23T00:49:05;10.02;;;7.80;;
43891;SDS011;29555;45.350;5.578;2022-11-23T00:51:31;10.57;;;6.57;;
43891;SDS011;29555;45.350;5.578;2022-11-23T00:53:58;14.52;;;6.45;;
43891;SDS011;29555;45.350;5.578;2022-11-23T00:56:25;10.00;;;6.55;;
43891;SDS011;29555;45.350;5.578;2022-11-23T00:58:51;8.43;;;5.53;;
43891;SDS011;29555;45.350;5.578;2022-11-23T01:01:19;12.15;;;7.30;;
43891;SDS011;29555;45.350;5.578;2022-11-23T01:03:47;14.45;;;6.20;;
43891;SDS011;29555;45.350;5.578;2022-11-23T01:06:21;10.00;;;5.93;;
43891;SDS011;29555;45.350;5.578;2022-11-23T01:08:49;10.30;;;4.97;;
43891;SDS011;29555;45.350;5.578;2022-11-23T01:11:16;10.73;;;5.63;;
43891;SDS011;29555;45.350;5.578;2022-11-23T01:13:43;9.82;;;5.53;;
43891;SDS011;29555;45.350;5.578;2022-11-23T01:16:10;11.00;;;7.50;;
43891;SDS011;29555;45.350;5.578;2022-11-23T01:18:38;10.77;;;7.45;;
43891;SDS011;29555;45.350;5.578;2022-11-23T01:21:04;13.02;;;6.22;;
43891;SDS011;29555;45.350;5.578;2022-11-23T01:23:29;9.95;;;5.97;;
43891;SDS011;29555;45.350;5.578;2022-11-23T01:25:55;12.82;;;6.30;;
43891;SDS011;29555;45.350;5.578;2022-11-23T01:28:21;7.72;;;5.13;;
43891;SDS011;29555;45.350;5.578;2022-11-23T01:30:46;7.38;;;5.18;;
43891;SDS011;29555;45.350;5.578;2022-11-23T01:33:11;10.73;;;6.63;;
43891;SDS011;29555;45.350;5.578;2022-11-23T01:35:37;10.60;;;5.70;;
43891;SDS011;29555;45.350;5.578;2022-11-23T01:38:03;9.52;;;5.75;;
43891;SDS011;29555;45.350;5.578;2022-11-23T01:40:28;10.63;;;5.22;;
43891;SDS011;29555;45.350;5.578;2022-11-23T01:42:58;7.97;;;5.40;;
43891;SDS011;29555;45.350;5.578;2022-11-23T01:48:02;9.45;;;5.88;;
43891;SDS011;29555;45.350;5.578;2022-11-23T01:50:31;8.65;;;5.18;;
43891;SDS011;29555;45.350;5.578;2022-11-23T01:52:57;8.98;;;4.63;;
43891;SDS011;29555;45.350;5.578;2022-11-23T01:55:23;9.93;;;4.72;;
43891;SDS011;29555;45.350;5.578;2022-11-23T01:57:49;5.88;;;4.57;;
43891;SDS011;29555;45.350;5.578;2022-11-23T02:00:15;8.13;;;4.28;;
43891;SDS011;29555;45.350;5.578;2022-11-23T02:02:42;8.63;;;4.15;;
43891;SDS011;29555;45.350;5.578;2022-11-23T02:05:12;7.72;;;4.43;;
43891;SDS011;29555;45.350;5.578;2022-11-23T02:07:38;4.32;;;2.95;;
43891;SDS011;29555;45.350;5.578;2022-11-23T02:10:04;8.48;;;3.10;;
43891;SDS011;29555;45.350;5.578;2022-11-23T02:12:30;6.15;;;3.97;;
43891;SDS011;29555;45.350;5.578;2022-11-23T02:14:56;7.10;;;3.60;;
43891;SDS011;29555;45.350;5.578;2022-11-23T02:17:21;13.70;;;3.15;;
43891;SDS011;29555;45.350;5.578;2022-11-23T02:22:38;4.23;;;3.33;;
43891;SDS011;29555;45.350;5.578;2022-11-23T02:28:52;5.65;;;3.15;;
43891;SDS011;29555;45.350;5.578;2022-11-23T02:31:00;6.72;;;3.95;;
43891;SDS011;29555;45.350;5.578;2022-11-23T02:33:27;8.70;;;5.00;;
43891;SDS011;29555;45.350;5.578;2022-11-23T02:35:54;5.65;;;4.38;;
43891;SDS011;29555;45.350;5.578;2022-11-23T02:38:22;13.20;;;4.50;;
43891;SDS011;29555;45.350;5.578;2022-11-23T02:40:49;11.82;;;3.80;;
43891;SDS011;29555;45.350;5.578;2022-11-23T02:43:15;8.23;;;3.10;;
43891;SDS011;29555;45.350;5.578;2022-11-23T02:45:50;5.93;;;3.28;;
43891;SDS011;29555;45.350;5.578;2022-11-23T02:48:18;4.10;;;3.13;;
43891;SDS011;29555;45.350;5.578;2022-11-23T02:50:44;6.90;;;3.65;;
43891;SDS011;29555;45.350;5.578;2022-11-23T02:53:10;6.22;;;3.55;;
43891;SDS011;29555;45.350;5.578;2022-11-23T02:55:36;6.28;;;2.78;;
43891;SDS011;29555;45.350;5.578;2022-11-23T02:58:01;7.03;;;2.55;;
43891;SDS011;29555;45.350;5.578;2022-11-23T03:00:28;5.65;;;2.08;;
43891;SDS011;29555;45.350;5.578;2022-11-23T03:02:53;3.10;;;2.67;;
43891;SDS011;29555;45.350;5.578;2022-11-23T03:05:19;3.33;;;2.60;;
43891;SDS011;29555;45.350;5.578;2022-11-23T03:07:44;8.60;;;2.47;;
43891;SDS011;29555;45.350;5.578;2022-11-23T03:10:10;4.85;;;2.25;;
43891;SDS011;29555;45.350;5.578;2022-11-23T03:12:35;5.38;;;2.78;;
43891;SDS011;29555;45.350;5.578;2022-11-23T03:15:01;6.97;;;2.20;;
43891;SDS011;29555;45.350;5.578;2022-11-23T03:17:27;4.90;;;3.08;;
43891;SDS011;29555;45.350;5.578;2022-11-23T03:19:52;5.32;;;3.17;;
43891;SDS011;29555;45.350;5.578;2022-11-23T03:22:18;10.60;;;3.40;;
43891;SDS011;29555;45.350;5.578;2022-11-23T03:24:43;6.13;;;2.83;;
43891;SDS011;29555;45.350;5.578;2022-11-23T03:27:09;8.20;;;3.60;;
43891;SDS011;29555;45.350;5.578;2022-11-23T03:29:35;6.13;;;3.42;;
43891;SDS011;29555;45.350;5.578;2022-11-23T03:32:00;14.57;;;3.40;;
43891;SDS011;29555;45.350;5.578;2022-11-23T03:34:25;10.43;;;3.08;;
43891;SDS011;29555;45.350;5.578;2022-11-23T03:36:51;12.40;;;3.80;;
43891;SDS011;29555;45.350;5.578;2022-11-23T03:39:16;3.95;;;2.95;;
43891;SDS011;29555;45.350;5.578;2022-11-23T03:41:42;13.10;;;4.38;;
43891;SDS011;29555;45.350;5.578;2022-11-23T03:44:07;4.80;;;2.60;;
43891;SDS011;29555;45.350;5.578;2022-11-23T03:46:33;3.78;;;3.17;;
43891;SDS011;29555;45.350;5.578;2022-11-23T03:48:58;6.72;;;3.67;;
43891;SDS011;29555;45.350;5.578;2022-11-23T03:51:23;6.82;;;3.03;;
43891;SDS011;29555;45.350;5.578;2022-11-23T03:53:49;10.35;;;3.58;;
43891;SDS011;29555;45.350;5.578;2022-11-23T03:56:14;4.50;;;3.13;;
43891;SDS011;29555;45.350;5.578;2022-11-23T03:58:40;10.10;;;4.22;;
43891;SDS011;29555;45.350;5.578;2022-11-23T04:01:05;8.80;;;5.18;;
43891;SDS011;29555;45.350;5.578;2022-11-23T04:03:31;7.60;;;4.43;;
43891;SDS011;29555;45.350;5.578;2022-11-23T04:05:57;3.92;;;3.38;;
43891;SDS011;29555;45.350;5.578;2022-11-23T04:08:22;6.22;;;3.50;;
43891;SDS011;29555;45.350;5.578;2022-11-23T04:10:48;5.70;;;3.53;;
43891;SDS011;29555;45.350;5.578;2022-11-23T04:13:13;5.50;;;3.53;;
43891;SDS011;29555;45.350;5.578;2022-11-23T04:15:39;4.22;;;2.85;;
43891;SDS011;29555;45.350;5.578;2022-11-23T04:18:04;10.25;;;2.95;;
43891;SDS011;29555;45.350;5.578;2022-11-23T04:20:29;6.10;;;2.47;;
43891;SDS011;29555;45.350;5.578;2022-11-23T04:22:55;7.78;;;2.70;;
43891;SDS011;29555;45.350;5.578;2022-11-23T04:25:20;5.85;;;3.63;;
43891;SDS011;29555;45.350;5.578;2022-11-23T04:27:46;4.53;;;3.33;;
43891;SDS011;29555;45.350;5.578;2022-11-23T04:30:11;3.45;;;2.13;;
43891;SDS011;29555;45.350;5.578;2022-11-23T04:32:37;8.75;;;3.13;;
43891;SDS011;29555;45.350;5.578;2022-11-23T04:35:03;3.72;;;2.28;;
43891;SDS011;29555;45.350;5.578;2022-11-23T04:37:28;2.72;;;2.28;;
43891;SDS011;29555;45.350;5.578;2022-11-23T04:39:54;13.85;;;3.15;;
43891;SDS011;29555;45.350;5.578;2022-11-23T04:42:19;5.53;;;2.90;;
43891;SDS011;29555;45.350;5.578;2022-11-23T04:44:45;7.72;;;3.08;;
43891;SDS011;29555;45.350;5.578;2022-11-23T04:47:11;6.55;;;3.10;;
43891;SDS011;29555;45.350;5.578;2022-11-23T04:49:36;5.68;;;2.40;;
43891;SDS011;29555;45.350;5.578;2022-11-23T04:52:02;2.28;;;1.73;;
43891;SDS011;29555;45.350;5.578;2022-11-23T04:54:27;2.88;;;2.22;;
43891;SDS011;29555;45.350;5.578;2022-11-23T04:56:53;4.55;;;1.85;;
43891;SDS011;29555;45.350;5.578;2022-11-23T04:59:18;7.60;;;3.00;;
43891;SDS011;29555;45.350;5.578;2022-11-23T05:01:44;6.53;;;2.38;;
43891;SDS011;29555;45.350;5.578;2022-11-23T05:04:09;38.13;;;13.85;;
43891;SDS011;29555;45.350;5.578;2022-11-23T05:06:35;23.63;;;10.50;;
43891;SDS011;29555;45.350;5.578;2022-11-23T05:09:00;133.73;;;49.60;;
43891;SDS011;29555;45.350;5.578;2022-11-23T05:11:26;68.65;;;28.83;;
43891;SDS011;29555;45.350;5.578;2022-11-23T05:13:51;29.90;;;16.05;;
43891;SDS011;29555;45.350;5.578;2022-11-23T05:16:17;14.93;;;7.78;;
43891;SDS011;29555;45.350;5.578;2022-11-23T05:18:42;31.88;;;16.20;;
43891;SDS011;29555;45.350;5.578;2022-11-23T05:21:08;47.03;;;21.05;;
43891;SDS011;29555;45.350;5.578;2022-11-23T05:23:33;38.10;;;20.65;;
43891;SDS011;29555;45.350;5.578;2022-11-23T05:25:59;24.17;;;9.98;;
43891;SDS011;29555;45.350;5.578;2022-11-23T05:28:24;44.58;;;20.20;;
43891;SDS011;29555;45.350;5.578;2022-11-23T05:30:49;38.63;;;17.95;;
43891;SDS011;29555;45.350;5.578;2022-11-23T05:33:15;28.33;;;12.68;;
43891;SDS011;29555;45.350;5.578;2022-11-23T05:35:40;43.13;;;20.17;;
43891;SDS011;29555;45.350;5.578;2022-11-23T05:38:06;98.82;;;37.53;;
43891;SDS011;29555;45.350;5.578;2022-11-23T05:40:31;74.68;;;32.17;;
43891;SDS011;29555;45.350;5.578;2022-11-23T05:42:57;70.80;;;32.17;;
43891;SDS011;29555;45.350;5.578;2022-11-23T05:45:23;37.03;;;21.88;;
43891;SDS011;29555;45.350;5.578;2022-11-23T05:47:50;35.78;;;17.55;;
43891;SDS011;29555;45.350;5.578;2022-11-23T05:50:17;30.48;;;14.20;;
43891;SDS011;29555;45.350;5.578;2022-11-23T05:52:43;25.20;;;14.05;;
43891;SDS011;29555;45.350;5.578;2022-11-23T05:55:08;12.38;;;9.07;;
43891;SDS011;29555;45.350;5.578;2022-11-23T05:57:34;18.08;;;9.40;;
43891;SDS011;29555;45.350;5.578;2022-11-23T05:59:59;8.52;;;5.00;;
43891;SDS011;29555;45.350;5.578;2022-11-23T06:02:25;14.38;;;8.13;;
43891;SDS011;29555;45.350;5.578;2022-11-23T06:04:51;16.27;;;9.95;;
43891;SDS011;29555;45.350;5.578;2022-11-23T06:07:16;13.10;;;7.75;;
43891;SDS011;29555;45.350;5.578;2022-11-23T06:09:41;18.55;;;9.88;;
43891;SDS011;29555;45.350;5.578;2022-11-23T06:12:07;16.15;;;7.95;;
43891;SDS011;29555;45.350;5.578;2022-11-23T06:14:32;45.70;;;20.70;;
43891;SDS011;29555;45.350;5.578;2022-11-23T06:16:58;31.48;;;19.30;;
43891;SDS011;29555;45.350;5.578;2022-11-23T06:19:23;19.60;;;10.73;;
43891;SDS011;29555;45.350;5.578;2022-11-23T06:21:49;32.30;;;15.20;;
43891;SDS011;29555;45.350;5.578;2022-11-23T06:24:14;30.05;;;15.73;;
43891;SDS011;29555;45.350;5.578;2022-11-23T06:26:39;18.55;;;11.88;;
43891;SDS011;29555;45.350;5.578;2022-11-23T06:29:05;16.58;;;9.18;;
43891;SDS011;29555;45.350;5.578;2022-11-23T06:31:30;10.60;;;6.40;;
43891;SDS011;29555;45.350;5.578;2022-11-23T06:33:56;39.42;;;21.48;;
43891;SDS011;29555;45.350;5.578;2022-11-23T06:36:21;54.13;;;30.42;;
43891;SDS011;29555;45.350;5.578;2022-11-23T06:38:47;46.75;;;23.60;;
43891;SDS011;29555;45.350;5.578;2022-11-23T06:41:13;46.58;;;27.60;;
43891;SDS011;29555;45.350;5.578;2022-11-23T06:43:39;27.77;;;15.85;;
43891;SDS011;29555;45.350;5.578;2022-11-23T06:46:05;20.75;;;13.38;;
43891;SDS011;29555;45.350;5.578;2022-11-23T06:48:32;32.70;;;18.60;;
43891;SDS011;29555;45.350;5.578;2022-11-23T06:50:58;46.45;;;24.65;;
43891;SDS011;29555;45.350;5.578;2022-11-23T06:53:24;24.88;;;15.07;;
43891;SDS011;29555;45.350;5.578;2022-11-23T06:55:51;25.83;;;15.85;;
43891;SDS011;29555;45.350;5.578;2022-11-23T06:58:16;22.65;;;12.88;;
43891;SDS011;29555;45.350;5.578;2022-11-23T07:00:42;21.92;;;12.32;;
43891;SDS011;29555;45.350;5.578;2022-11-23T07:03:11;11.95;;;7.97;;
43891;SDS011;29555;45.350;5.578;2022-11-23T07:05:45;11.02;;;6.50;;
43891;SDS011;29555;45.350;5.578;2022-11-23T07:08:11;17.77;;;12.25;;
43891;SDS011;29555;45.350;5.578;2022-11-23T07:10:37;15.27;;;8.63;;
43891;SDS011;29555;45.350;5.578;2022-11-23T07:13:03;11.23;;;6.97;;
43891;SDS011;29555;45.350;5.578;2022-11-23T07:15:29;10.45;;;7.38;;
43891;SDS011;29555;45.350;5.578;2022-11-23T07:17:55;10.57;;;7.53;;
43891;SDS011;29555;45.350;5.578;2022-11-23T07:20:21;16.85;;;9.85;;
43891;SDS011;29555;45.350;5.578;2022-11-23T07:22:46;19.17;;;10.68;;
43891;SDS011;29555;45.350;5.578;2022-11-23T07:25:12;10.13;;;7.78;;
43891;SDS011;29555;45.350;5.578;2022-11-23T07:27:42;7.20;;;4.30;;
43891;SDS011;29555;45.350;5.578;2022-11-23T07:30:08;5.05;;;4.20;;
43891;SDS011;29555;45.350;5.578;2022-11-23T07:32:34;9.18;;;5.78;;
43891;SDS011;29555;45.350;5.578;2022-11-23T07:34:59;7.25;;;5.85;;
43891;SDS011;29555;45.350;5.578;2022-11-23T07:37:25;7.57;;;4.43;;
43891;SDS011;29555;45.350;5.578;2022-11-23T07:39:50;7.40;;;2.28;;
43891;SDS011;29555;45.350;5.578;2022-11-23T07:42:17;8.18;;;3.45;;
43891;SDS011;29555;45.350;5.578;2022-11-23T07:44:44;3.17;;;2.88;;
43891;SDS011;29555;45.350;5.578;2022-11-23T07:47:10;2.70;;;2.50;;
43891;SDS011;29555;45.350;5.578;2022-11-23T07:49:35;4.85;;;3.35;;
43891;SDS011;29555;45.350;5.578;2022-11-23T07:52:00;4.80;;;2.70;;
43891;SDS011;29555;45.350;5.578;2022-11-23T07:54:26;5.95;;;2.97;;
43891;SDS011;29555;45.350;5.578;2022-11-23T07:56:51;4.25;;;2.25;;
43891;SDS011;29555;45.350;5.578;2022-11-23T07:59:16;6.47;;;3.20;;
43891;SDS011;29555;45.350;5.578;2022-11-23T08:01:42;9.70;;;3.92;;
43891;SDS011;29555;45.350;5.578;2022-11-23T08:04:07;3.35;;;2.72;;
43891;SDS011;29555;45.350;5.578;2022-11-23T08:06:32;7.15;;;2.22;;
43891;SDS011;29555;45.350;5.578;2022-11-23T08:08:58;5.20;;;1.65;;
43891;SDS011;29555;45.350;5.578;2022-11-23T08:11:23;4.88;;;2.30;;
43891;SDS011;29555;45.350;5.578;2022-11-23T08:13:49;6.05;;;2.50;;
43891;SDS011;29555;45.350;5.578;2022-11-23T08:16:14;2.13;;;1.83;;
43891;SDS011;29555;45.350;5.578;2022-11-23T08:18:40;11.65;;;3.83;;
43891;SDS011;29555;45.350;5.578;2022-11-23T08:21:05;5.65;;;2.67;;
43891;SDS011;29555;45.350;5.578;2022-11-23T08:23:30;4.00;;;2.13;;
43891;SDS011;29555;45.350;5.578;2022-11-23T08:25:56;100.97;;;38.50;;
43891;SDS011;29555;45.350;5.578;2022-11-23T08:28:21;80.22;;;29.35;;
43891;SDS011;29555;45.350;5.578;2022-11-23T08:30:46;57.00;;;24.67;;
43891;SDS011;29555;45.350;5.578;2022-11-23T08:33:13;103.15;;;37.65;;
43891;SDS011;29555;45.350;5.578;2022-11-23T08:35:39;81.68;;;34.45;;
43891;SDS011;29555;45.350;5.578;2022-11-23T08:38:06;146.95;;;56.42;;
43891;SDS011;29555;45.350;5.578;2022-11-23T08:40:33;92.40;;;41.42;;
43891;SDS011;29555;45.350;5.578;2022-11-23T08:42:59;74.03;;;35.03;;
43891;SDS011;29555;45.350;5.578;2022-11-23T08:45:25;58.55;;;28.40;;
43891;SDS011;29555;45.350;5.578;2022-11-23T08:47:51;41.58;;;19.02;;
43891;SDS011;29555;45.350;5.578;2022-11-23T08:50:17;44.33;;;22.05;;
43891;SDS011;29555;45.350;5.578;2022-11-23T08:52:43;13.05;;;9.93;;
43891;SDS011;29555;45.350;5.578;2022-11-23T08:55:09;22.48;;;10.77;;
43891;SDS011;29555;45.350;5.578;2022-11-23T08:57:34;21.00;;;11.75;;
43891;SDS011;29555;45.350;5.578;2022-11-23T08:59:59;11.23;;;6.28;;
43891;SDS011;29555;45.350;5.578;2022-11-23T09:02:25;11.98;;;5.43;;
43891;SDS011;29555;45.350;5.578;2022-11-23T09:04:50;25.13;;;12.15;;
43891;SDS011;29555;45.350;5.578;2022-11-23T09:07:16;16.63;;;9.23;;
43891;SDS011;29555;45.350;5.578;2022-11-23T09:09:41;25.73;;;13.77;;
43891;SDS011;29555;45.350;5.578;2022-11-23T09:12:07;23.65;;;13.15;;
43891;SDS011;29555;45.350;5.578;2022-11-23T09:14:32;31.77;;;16.30;;
43891;SDS011;29555;45.350;5.578;2022-11-23T09:16:59;25.98;;;11.55;;
43891;SDS011;29555;45.350;5.578;2022-11-23T09:19:26;17.00;;;9.35;;
43891;SDS011;29555;45.350;5.578;2022-11-23T09:21:51;20.25;;;9.43;;
43891;SDS011;29555;45.350;5.578;2022-11-23T09:24:18;20.17;;;13.32;;
43891;SDS011;29555;45.350;5.578;2022-11-23T09:26:43;24.45;;;12.48;;
43891;SDS011;29555;45.350;5.578;2022-11-23T09:29:09;31.70;;;19.70;;
43891;SDS011;29555;45.350;5.578;2022-11-23T09:31:34;36.78;;;21.83;;
43891;SDS011;29555;45.350;5.578;2022-11-23T09:34:03;27.17;;;14.95;;
43891;SDS011;29555;45.350;5.578;2022-11-23T09:36:29;32.08;;;14.98;;
43891;SDS011;29555;45.350;5.578;2022-11-23T09:38:55;25.75;;;16.27;;
43891;SDS011;29555;45.350;5.578;2022-11-23T09:49:37;18.88;;;9.57;;
43891;SDS011;29555;45.350;5.578;2022-11-23T09:52:18;15.18;;;8.18;;
43891;SDS011;29555;45.350;5.578;2022-11-23T09:54:47;40.70;;;21.73;;
43891;SDS011;29555;45.350;5.578;2022-11-23T09:57:18;34.88;;;15.75;;
43891;SDS011;29555;45.350;5.578;2022-11-23T09:59:49;34.42;;;17.27;;
43891;SDS011;29555;45.350;5.578;2022-11-23T10:02:35;32.80;;;16.67;;
43891;SDS011;29555;45.350;5.578;2022-11-23T10:05:04;26.13;;;18.30;;
43891;SDS011;29555;45.350;5.578;2022-11-23T10:18:08;15.70;;;10.60;;
43891;SDS011;29555;45.350;5.578;2022-11-23T10:20:57;15.73;;;7.32;;
43891;SDS011;29555;45.350;5.578;2022-11-23T10:23:45;12.25;;;7.28;;
43891;SDS011;29555;45.350;5.578;2022-11-23T10:26:17;12.75;;;6.25;;
43891;SDS011;29555;45.350;5.578;2022-11-23T10:28:45;4.93;;;4.00;;
43891;SDS011;29555;45.350;5.578;2022-11-23T10:31:18;7.88;;;6.38;;
43891;SDS011;29555;45.350;5.578;2022-11-23T10:36:35;3.22;;;2.92;;
43891;SDS011;29555;45.350;5.578;2022-11-23T10:39:01;7.78;;;4.15;;
43891;SDS011;29555;45.350;5.578;2022-11-23T10:41:35;6.95;;;3.47;;
43891;SDS011;29555;45.350;5.578;2022-11-23T10:44:06;6.90;;;3.67;;
43891;SDS011;29555;45.350;5.578;2022-11-23T10:46:43;6.32;;;3.55;;
43891;SDS011;29555;45.350;5.578;2022-11-23T10:51:55;5.10;;;3.00;;
43891;SDS011;29555;45.350;5.578;2022-11-23T10:54:31;2.67;;;2.47;;
43891;SDS011;29555;45.350;5.578;2022-11-23T11:02:40;4.43;;;3.33;;
43891;SDS011;29555;45.350;5.578;2022-11-23T11:08:18;3.65;;;2.50;;
43891;SDS011;29555;45.350;5.578;2022-11-23T11:10:45;7.20;;;2.33;;
43891;SDS011;29555;45.350;5.578;2022-11-23T11:16:09;5.43;;;1.65;;
43891;SDS011;29555;45.350;5.578;2022-11-23T11:18:43;4.28;;;2.13;;
43891;SDS011;29555;45.350;5.578;2022-11-23T11:21:19;3.13;;;2.03;;
43891;SDS011;29555;45.350;5.578;2022-11-23T11:23:57;3.78;;;1.73;;
43891;SDS011;29555;45.350;5.578;2022-11-23T11:29:52;4.00;;;2.17;;
43891;SDS011;29555;45.350;5.578;2022-11-23T11:32:21;3.67;;;1.55;;
43891;SDS011;29555;45.350;5.578;2022-11-23T11:34:54;3.10;;;2.60;;
43891;SDS011;29555;45.350;5.578;2022-11-23T11:37:31;5.35;;;3.08;;
43891;SDS011;29555;45.350;5.578;2022-11-23T11:43:07;2.88;;;2.38;;
43891;SDS011;29555;45.350;5.578;2022-11-23T11:45:47;3.03;;;1.73;;
43891;SDS011;29555;45.350;5.578;2022-11-23T11:48:21;4.22;;;1.60;;
43891;SDS011;29555;45.350;5.578;2022-11-23T11:50:50;7.32;;;1.73;;
43891;SDS011;29555;45.350;5.578;2022-11-23T11:53:23;6.43;;;2.25;;
43891;SDS011;29555;45.350;5.578;2022-11-23T11:55:57;6.32;;;1.85;;
43891;SDS011;29555;45.350;5.578;2022-11-23T11:58:48;4.82;;;1.52;;
43891;SDS011;29555;45.350;5.578;2022-11-23T12:01:34;2.28;;;1.60;;
43891;SDS011;29555;45.350;5.578;2022-11-23T12:04:05;10.18;;;2.97;;
43891;SDS011;29555;45.350;5.578;2022-11-23T12:06:42;6.15;;;3.08;;
43891;SDS011;29555;45.350;5.578;2022-11-23T12:09:14;9.02;;;2.67;;
43891;SDS011;29555;45.350;5.578;2022-11-23T12:11:43;4.32;;;2.75;;
43891;SDS011;29555;45.350;5.578;2022-11-23T12:14:10;10.00;;;2.55;;
43891;SDS011;29555;45.350;5.578;2022-11-23T12:16:41;99.15;;;39.85;;
43891;SDS011;29555;45.350;5.578;2022-11-23T12:29:50;131.00;;;60.63;;
43891;SDS011;29555;45.350;5.578;2022-11-23T12:32:43;142.15;;;60.05;;
43891;SDS011;29555;45.350;5.578;2022-11-23T12:35:30;92.10;;;43.78;;
43891;SDS011;29555;45.350;5.578;2022-11-23T12:38:23;94.25;;;42.53;;
43891;SDS011;29555;45.350;5.578;2022-11-23T12:46:47;48.42;;;24.35;;
43891;SDS011;29555;45.350;5.578;2022-11-23T12:49:25;60.22;;;27.08;;
43891;SDS011;29555;45.350;5.578;2022-11-23T12:57:03;108.88;;;54.17;;
43891;SDS011;29555;45.350;5.578;2022-11-23T12:59:41;50.60;;;28.77;;
43891;SDS011;29555;45.350;5.578;2022-11-23T13:02:22;67.75;;;37.63;;
43891;SDS011;29555;45.350;5.578;2022-11-23T13:10:52;23.52;;;14.27;;
43891;SDS011;29555;45.350;5.578;2022-11-23T13:22:09;16.35;;;12.45;;
43891;SDS011;29555;45.350;5.578;2022-11-23T13:24:39;10.40;;;7.50;;
43891;SDS011;29555;45.350;5.578;2022-11-23T13:40:38;19.05;;;9.45;;
43891;SDS011;29555;45.350;5.578;2022-11-23T13:43:14;14.50;;;8.20;;
43891;SDS011;29555;45.350;5.578;2022-11-23T13:45:42;8.50;;;5.78;;
43891;SDS011;29555;45.350;5.578;2022-11-23T13:50:33;8.02;;;4.47;;
43891;SDS011;29555;45.350;5.578;2022-11-23T13:52:59;7.53;;;4.97;;
43891;SDS011;29555;45.350;5.578;2022-11-23T13:55:32;9.32;;;4.43;;
43891;SDS011;29555;45.350;5.578;2022-11-23T14:00:51;6.03;;;4.43;;
43891;SDS011;29555;45.350;5.578;2022-11-23T14:06:13;11.40;;;5.35;;
43891;SDS011;29555;45.350;5.578;2022-11-23T14:08:57;18.58;;;10.82;;
43891;SDS011;29555;45.350;5.578;2022-11-23T14:11:41;15.32;;;8.70;;
43891;SDS011;29555;45.350;5.578;2022-11-23T14:14:17;13.32;;;8.05;;
43891;SDS011;29555;45.350;5.578;2022-11-23T14:22:27;7.55;;;5.43;;
43891;SDS011;29555;45.350;5.578;2022-11-23T14:33:49;9.85;;;3.85;;
43891;SDS011;29555;45.350;5.578;2022-11-23T14:41:38;5.32;;;2.95;;
43891;SDS011;29555;45.350;5.578;2022-11-23T14:44:07;8.55;;;5.13;;
43891;SDS011;29555;45.350;5.578;2022-11-23T14:46:37;13.90;;;8.38;;
43891;SDS011;29555;45.350;5.578;2022-11-23T14:49:23;14.00;;;8.45;;
43891;SDS011;29555;45.350;5.578;2022-11-23T14:51:48;13.77;;;8.90;;
43891;SDS011;29555;45.350;5.578;2022-11-23T15:17:18;7.75;;;5.45;;
43891;SDS011;29555;45.350;5.578;2022-11-23T15:19:52;5.50;;;4.75;;
43891;SDS011;29555;45.350;5.578;2022-11-23T15:22:22;8.70;;;4.97;;
43891;SDS011;29555;45.350;5.578;2022-11-23T15:24:48;6.78;;;3.83;;
43891;SDS011;29555;45.350;5.578;2022-11-23T15:27:23;4.00;;;3.33;;
43891;SDS011;29555;45.350;5.578;2022-11-23T15:29:53;4.90;;;3.35;;
43891;SDS011;29555;45.350;5.578;2022-11-23T15:32:25;3.72;;;3.33;;
43891;SDS011;29555;45.350;5.578;2022-11-23T15:34:56;14.05;;;6.70;;
43891;SDS011;29555;45.350;5.578;2022-11-23T15:37:23;13.80;;;5.07;;
43891;SDS011;29555;45.350;5.578;2022-11-23T15:39:51;11.15;;;4.15;;
43891;SDS011;29555;45.350;5.578;2022-11-23T15:42:19;5.40;;;3.50;;
43891;SDS011;29555;45.350;5.578;2022-11-23T15:44:46;10.13;;;4.68;;
43891;SDS011;29555;45.350;5.578;2022-11-23T15:47:20;12.48;;;7.18;;
43891;SDS011;29555;45.350;5.578;2022-11-23T15:50:12;13.25;;;10.38;;
43891;SDS011;29555;45.350;5.578;2022-11-23T15:52:38;9.45;;;6.53;;
43891;SDS011;29555;45.350;5.578;2022-11-23T15:55:07;5.53;;;3.38;;
43891;SDS011;29555;45.350;5.578;2022-11-23T15:57:38;14.53;;;8.03;;
43891;SDS011;29555;45.350;5.578;2022-11-23T16:00:05;10.65;;;6.95;;
43891;SDS011;29555;45.350;5.578;2022-11-23T16:02:31;14.85;;;9.20;;
43891;SDS011;29555;45.350;5.578;2022-11-23T16:05:11;9.98;;;8.75;;
43891;SDS011;29555;45.350;5.578;2022-11-23T16:07:57;14.90;;;9.70;;
43891;SDS011;29555;45.350;5.578;2022-11-23T16:10:25;14.55;;;9.35;;
43891;SDS011;29555;45.350;5.578;2022-11-23T16:12:59;16.38;;;8.65;;
43891;SDS011;29555;45.350;5.578;2022-11-23T16:17:54;9.88;;;5.95;;
43891;SDS011;29555;45.350;5.578;2022-11-23T16:20:21;8.20;;;5.03;;
43891;SDS011;29555;45.350;5.578;2022-11-23T16:22:49;60.80;;;19.67;;
43891;SDS011;29555;45.350;5.578;2022-11-23T16:27:55;14.63;;;7.15;;
43891;SDS011;29555;45.350;5.578;2022-11-23T16:30:42;12.65;;;5.65;;
43891;SDS011;29555;45.350;5.578;2022-11-23T16:33:12;9.27;;;5.38;;
43891;SDS011;29555;45.350;5.578;2022-11-23T16:35:39;5.10;;;4.45;;
43891;SDS011;29555;45.350;5.578;2022-11-23T16:38:05;5.65;;;4.85;;
43891;SDS011;29555;45.350;5.578;2022-11-23T16:40:31;6.80;;;3.92;;
43891;SDS011;29555;45.350;5.578;2022-11-23T16:42:57;4.25;;;3.85;;
43891;SDS011;29555;45.350;5.578;2022-11-23T16:45:24;8.25;;;7.13;;
43891;SDS011;29555;45.350;5.578;2022-11-23T16:50:30;16.00;;;8.23;;
43891;SDS011;29555;45.350;5.578;2022-11-23T16:53:01;13.00;;;6.75;;
43891;SDS011;29555;45.350;5.578;2022-11-23T16:55:37;18.25;;;9.63;;
43891;SDS011;29555;45.350;5.578;2022-11-23T16:58:02;44.17;;;23.30;;
43891;SDS011;29555;45.350;5.578;2022-11-23T17:00:28;21.08;;;11.95;;
43891;SDS011;29555;45.350;5.578;2022-11-23T17:02:54;20.45;;;11.00;;
43891;SDS011;29555;45.350;5.578;2022-11-23T17:05:20;58.78;;;29.92;;
43891;SDS011;29555;45.350;5.578;2022-11-23T17:07:49;15.15;;;10.20;;
43891;SDS011;29555;45.350;5.578;2022-11-23T17:10:15;18.98;;;9.95;;
43891;SDS011;29555;45.350;5.578;2022-11-23T17:12:46;25.45;;;11.40;;
43891;SDS011;29555;45.350;5.578;2022-11-23T17:15:18;26.63;;;14.63;;
43891;SDS011;29555;45.350;5.578;2022-11-23T17:17:45;61.50;;;32.92;;
43891;SDS011;29555;45.350;5.578;2022-11-23T17:20:11;41.63;;;22.25;;